Tollgate, Oregon
Current Conditions -  °F | °C
As of 8:56 PM on Wednesday 26 Nov 2014 (Local Time) from KRDM Reporting Station
Clear Clear  
Wind Chill: 51°   Ceiling: Unl
Heat Index: 51°   Visibility: 10mi
Dew Point: 33°   Wind: 14mph
Humidity: 50%   Direction: 170°S
Pressure: 30.07"   Gusts: NA
Location:  44.3095°N, 121.588°W
Report Text: KRDM 270456Z AUTO 17012KT 10SM CLR 11/01 A3007 RMK AO2 WSHFT 0433 SLP184 T01060006
Loading
Personal Weather Stations






























Interactive Weather Map New forecast layout! Learn more

10-Day Weather Forecast

Advertisements
Track Severe Weather on mobile